sensor_id;sensor_type;location;lat;lon;timestamp;P1;durP1;ratioP1;P2;durP2;ratioP2
15958;SDS011;8078;47.822;9.402;2023-04-26T00:01:40;16.47;;;10.03;;
15958;SDS011;8078;47.822;9.402;2023-04-26T00:04:06;15.33;;;9.33;;
15958;SDS011;8078;47.822;9.402;2023-04-26T00:06:32;16.03;;;10.27;;
15958;SDS011;8078;47.822;9.402;2023-04-26T00:08:58;14.00;;;9.70;;
15958;SDS011;8078;47.822;9.402;2023-04-26T00:11:24;13.93;;;9.43;;
15958;SDS011;8078;47.822;9.402;2023-04-26T00:13:50;16.43;;;9.57;;
15958;SDS011;8078;47.822;9.402;2023-04-26T00:16:15;13.93;;;8.67;;
15958;SDS011;8078;47.822;9.402;2023-04-26T00:18:42;10.20;;;7.50;;
15958;SDS011;8078;47.822;9.402;2023-04-26T00:21:08;7.60;;;5.93;;
15958;SDS011;8078;47.822;9.402;2023-04-26T00:23:34;7.57;;;5.13;;
15958;SDS011;8078;47.822;9.402;2023-04-26T00:26:00;6.83;;;5.40;;
15958;SDS011;8078;47.822;9.402;2023-04-26T00:28:27;7.00;;;4.87;;
15958;SDS011;8078;47.822;9.402;2023-04-26T00:30:53;4.83;;;4.27;;
15958;SDS011;8078;47.822;9.402;2023-04-26T00:33:21;6.00;;;4.47;;
15958;SDS011;8078;47.822;9.402;2023-04-26T00:35:47;5.27;;;4.50;;
15958;SDS011;8078;47.822;9.402;2023-04-26T00:38:13;6.33;;;4.57;;
15958;SDS011;8078;47.822;9.402;2023-04-26T00:40:38;4.97;;;4.20;;
15958;SDS011;8078;47.822;9.402;2023-04-26T00:43:04;6.47;;;4.73;;
15958;SDS011;8078;47.822;9.402;2023-04-26T00:45:30;6.87;;;4.83;;
15958;SDS011;8078;47.822;9.402;2023-04-26T00:47:57;5.63;;;4.67;;
15958;SDS011;8078;47.822;9.402;2023-04-26T00:50:24;5.80;;;5.20;;
15958;SDS011;8078;47.822;9.402;2023-04-26T00:52:50;6.40;;;4.50;;
15958;SDS011;8078;47.822;9.402;2023-04-26T00:55:15;6.43;;;4.80;;
15958;SDS011;8078;47.822;9.402;2023-04-26T00:57:42;7.43;;;4.87;;
15958;SDS011;8078;47.822;9.402;2023-04-26T01:00:10;5.70;;;4.70;;
15958;SDS011;8078;47.822;9.402;2023-04-26T01:02:36;5.77;;;4.93;;
15958;SDS011;8078;47.822;9.402;2023-04-26T01:05:02;5.80;;;4.90;;
15958;SDS011;8078;47.822;9.402;2023-04-26T01:07:29;6.83;;;5.27;;
15958;SDS011;8078;47.822;9.402;2023-04-26T01:09:55;7.77;;;5.43;;
15958;SDS011;8078;47.822;9.402;2023-04-26T01:12:22;5.50;;;4.90;;
15958;SDS011;8078;47.822;9.402;2023-04-26T01:14:48;6.10;;;5.20;;
15958;SDS011;8078;47.822;9.402;2023-04-26T01:17:14;6.43;;;4.53;;
15958;SDS011;8078;47.822;9.402;2023-04-26T01:19:47;5.37;;;4.43;;
15958;SDS011;8078;47.822;9.402;2023-04-26T01:22:13;7.53;;;5.30;;
15958;SDS011;8078;47.822;9.402;2023-04-26T01:24:39;6.17;;;4.50;;
15958;SDS011;8078;47.822;9.402;2023-04-26T01:27:07;6.03;;;4.83;;
15958;SDS011;8078;47.822;9.402;2023-04-26T01:29:33;7.10;;;4.97;;
15958;SDS011;8078;47.822;9.402;2023-04-26T01:31:59;6.17;;;4.80;;
15958;SDS011;8078;47.822;9.402;2023-04-26T01:34:25;5.97;;;4.90;;
15958;SDS011;8078;47.822;9.402;2023-04-26T01:36:50;4.97;;;4.47;;
15958;SDS011;8078;47.822;9.402;2023-04-26T01:39:16;5.97;;;4.97;;
15958;SDS011;8078;47.822;9.402;2023-04-26T01:41:41;5.80;;;4.63;;
15958;SDS011;8078;47.822;9.402;2023-04-26T01:44:07;5.77;;;5.07;;
15958;SDS011;8078;47.822;9.402;2023-04-26T01:46:32;8.73;;;5.60;;
15958;SDS011;8078;47.822;9.402;2023-04-26T01:48:58;6.93;;;5.20;;
15958;SDS011;8078;47.822;9.402;2023-04-26T01:51:24;7.83;;;5.73;;
15958;SDS011;8078;47.822;9.402;2023-04-26T01:53:49;7.90;;;6.27;;
15958;SDS011;8078;47.822;9.402;2023-04-26T01:56:15;9.20;;;6.67;;
15958;SDS011;8078;47.822;9.402;2023-04-26T01:58:42;9.57;;;7.00;;
15958;SDS011;8078;47.822;9.402;2023-04-26T02:01:08;8.03;;;6.30;;
15958;SDS011;8078;47.822;9.402;2023-04-26T02:03:34;9.50;;;6.57;;
15958;SDS011;8078;47.822;9.402;2023-04-26T02:05:59;8.63;;;6.57;;
15958;SDS011;8078;47.822;9.402;2023-04-26T02:08:26;8.73;;;6.60;;
15958;SDS011;8078;47.822;9.402;2023-04-26T02:10:51;6.53;;;5.63;;
15958;SDS011;8078;47.822;9.402;2023-04-26T02:13:17;8.67;;;5.77;;
15958;SDS011;8078;47.822;9.402;2023-04-26T02:15:46;6.97;;;5.60;;
15958;SDS011;8078;47.822;9.402;2023-04-26T02:18:13;6.53;;;4.87;;
15958;SDS011;8078;47.822;9.402;2023-04-26T02:20:39;6.73;;;5.37;;
15958;SDS011;8078;47.822;9.402;2023-04-26T02:23:09;8.33;;;5.73;;
15958;SDS011;8078;47.822;9.402;2023-04-26T02:25:35;8.17;;;5.83;;
15958;SDS011;8078;47.822;9.402;2023-04-26T02:28:02;6.47;;;5.47;;
15958;SDS011;8078;47.822;9.402;2023-04-26T02:30:28;7.43;;;5.50;;
15958;SDS011;8078;47.822;9.402;2023-04-26T02:32:54;8.07;;;5.40;;
15958;SDS011;8078;47.822;9.402;2023-04-26T02:35:20;6.57;;;4.77;;
15958;SDS011;8078;47.822;9.402;2023-04-26T02:37:46;6.73;;;4.83;;
15958;SDS011;8078;47.822;9.402;2023-04-26T02:40:19;5.87;;;4.90;;
15958;SDS011;8078;47.822;9.402;2023-04-26T02:42:45;6.87;;;5.27;;
15958;SDS011;8078;47.822;9.402;2023-04-26T02:45:11;8.87;;;4.93;;
15958;SDS011;8078;47.822;9.402;2023-04-26T02:47:37;6.87;;;4.53;;
15958;SDS011;8078;47.822;9.402;2023-04-26T02:50:03;7.30;;;4.87;;
15958;SDS011;8078;47.822;9.402;2023-04-26T02:52:31;6.30;;;4.83;;
15958;SDS011;8078;47.822;9.402;2023-04-26T02:54:57;5.60;;;4.37;;
15958;SDS011;8078;47.822;9.402;2023-04-26T02:57:23;7.60;;;4.80;;
15958;SDS011;8078;47.822;9.402;2023-04-26T02:59:48;7.90;;;4.77;;
15958;SDS011;8078;47.822;9.402;2023-04-26T03:02:14;8.00;;;4.80;;
15958;SDS011;8078;47.822;9.402;2023-04-26T03:04:40;4.97;;;4.13;;
15958;SDS011;8078;47.822;9.402;2023-04-26T03:07:05;5.07;;;4.30;;
15958;SDS011;8078;47.822;9.402;2023-04-26T03:09:31;6.83;;;5.33;;
15958;SDS011;8078;47.822;9.402;2023-04-26T03:11:58;10.47;;;6.20;;
15958;SDS011;8078;47.822;9.402;2023-04-26T03:14:24;8.50;;;5.80;;
15958;SDS011;8078;47.822;9.402;2023-04-26T03:16:49;9.77;;;5.80;;
15958;SDS011;8078;47.822;9.402;2023-04-26T03:19:15;7.67;;;5.50;;
15958;SDS011;8078;47.822;9.402;2023-04-26T03:21:40;8.23;;;5.80;;
15958;SDS011;8078;47.822;9.402;2023-04-26T03:24:06;10.53;;;6.40;;
15958;SDS011;8078;47.822;9.402;2023-04-26T03:26:32;7.70;;;5.80;;
15958;SDS011;8078;47.822;9.402;2023-04-26T03:28:57;8.43;;;5.37;;
15958;SDS011;8078;47.822;9.402;2023-04-26T03:31:23;9.13;;;5.47;;
15958;SDS011;8078;47.822;9.402;2023-04-26T03:33:48;7.13;;;5.60;;
15958;SDS011;8078;47.822;9.402;2023-04-26T03:36:14;10.30;;;5.90;;
15958;SDS011;8078;47.822;9.402;2023-04-26T03:38:41;9.33;;;5.60;;
15958;SDS011;8078;47.822;9.402;2023-04-26T03:41:07;7.90;;;5.93;;
15958;SDS011;8078;47.822;9.402;2023-04-26T03:43:32;8.73;;;6.00;;
15958;SDS011;8078;47.822;9.402;2023-04-26T03:45:59;8.57;;;5.67;;
15958;SDS011;8078;47.822;9.402;2023-04-26T03:48:24;7.70;;;5.80;;
15958;SDS011;8078;47.822;9.402;2023-04-26T03:50:51;6.73;;;5.57;;
15958;SDS011;8078;47.822;9.402;2023-04-26T03:53:16;10.33;;;5.70;;
15958;SDS011;8078;47.822;9.402;2023-04-26T03:55:42;7.20;;;5.80;;
15958;SDS011;8078;47.822;9.402;2023-04-26T03:58:08;7.70;;;6.03;;
15958;SDS011;8078;47.822;9.402;2023-04-26T04:00:36;9.37;;;5.83;;
15958;SDS011;8078;47.822;9.402;2023-04-26T04:03:03;8.10;;;5.77;;
15958;SDS011;8078;47.822;9.402;2023-04-26T04:05:29;12.30;;;6.87;;
15958;SDS011;8078;47.822;9.402;2023-04-26T04:07:54;10.43;;;6.53;;
15958;SDS011;8078;47.822;9.402;2023-04-26T04:10:21;14.30;;;7.63;;
15958;SDS011;8078;47.822;9.402;2023-04-26T04:12:47;11.47;;;7.10;;
15958;SDS011;8078;47.822;9.402;2023-04-26T04:15:13;11.60;;;6.97;;
15958;SDS011;8078;47.822;9.402;2023-04-26T04:17:38;11.17;;;8.20;;
15958;SDS011;8078;47.822;9.402;2023-04-26T04:20:04;10.97;;;7.10;;
15958;SDS011;8078;47.822;9.402;2023-04-26T04:22:31;10.50;;;7.90;;
15958;SDS011;8078;47.822;9.402;2023-04-26T04:24:57;11.13;;;7.97;;
15958;SDS011;8078;47.822;9.402;2023-04-26T04:27:24;12.67;;;7.33;;
15958;SDS011;8078;47.822;9.402;2023-04-26T04:29:50;11.43;;;7.30;;
15958;SDS011;8078;47.822;9.402;2023-04-26T04:32:17;14.27;;;8.47;;
15958;SDS011;8078;47.822;9.402;2023-04-26T04:34:43;13.83;;;8.63;;
15958;SDS011;8078;47.822;9.402;2023-04-26T04:37:09;14.47;;;9.00;;
15958;SDS011;8078;47.822;9.402;2023-04-26T04:39:35;12.43;;;7.40;;
15958;SDS011;8078;47.822;9.402;2023-04-26T04:42:01;12.03;;;8.40;;
15958;SDS011;8078;47.822;9.402;2023-04-26T04:44:27;13.83;;;8.63;;
15958;SDS011;8078;47.822;9.402;2023-04-26T04:46:52;10.83;;;8.23;;
15958;SDS011;8078;47.822;9.402;2023-04-26T04:49:18;10.60;;;7.53;;
15958;SDS011;8078;47.822;9.402;2023-04-26T04:51:44;12.00;;;7.70;;
15958;SDS011;8078;47.822;9.402;2023-04-26T04:56:36;15.47;;;9.47;;
15958;SDS011;8078;47.822;9.402;2023-04-26T04:59:01;15.97;;;9.13;;
15958;SDS011;8078;47.822;9.402;2023-04-26T05:01:28;14.17;;;8.20;;
15958;SDS011;8078;47.822;9.402;2023-04-26T05:03:55;14.27;;;8.40;;
15958;SDS011;8078;47.822;9.402;2023-04-26T05:06:21;14.93;;;9.40;;
15958;SDS011;8078;47.822;9.402;2023-04-26T05:08:46;15.20;;;8.80;;
15958;SDS011;8078;47.822;9.402;2023-04-26T05:11:12;15.23;;;8.27;;
15958;SDS011;8078;47.822;9.402;2023-04-26T05:13:37;13.13;;;8.73;;
15958;SDS011;8078;47.822;9.402;2023-04-26T05:16:03;14.37;;;9.00;;
15958;SDS011;8078;47.822;9.402;2023-04-26T05:18:29;17.57;;;8.60;;
15958;SDS011;8078;47.822;9.402;2023-04-26T05:20:54;12.03;;;7.67;;
15958;SDS011;8078;47.822;9.402;2023-04-26T05:23:21;10.30;;;7.80;;
15958;SDS011;8078;47.822;9.402;2023-04-26T05:25:46;14.07;;;8.77;;
15958;SDS011;8078;47.822;9.402;2023-04-26T05:28:12;14.50;;;7.83;;
15958;SDS011;8078;47.822;9.402;2023-04-26T05:30:38;12.63;;;8.47;;
15958;SDS011;8078;47.822;9.402;2023-04-26T05:33:04;14.07;;;7.90;;
15958;SDS011;8078;47.822;9.402;2023-04-26T05:35:30;14.13;;;8.13;;
15958;SDS011;8078;47.822;9.402;2023-04-26T05:37:56;18.67;;;8.53;;
15958;SDS011;8078;47.822;9.402;2023-04-26T05:40:22;14.83;;;8.47;;
15958;SDS011;8078;47.822;9.402;2023-04-26T05:42:48;13.77;;;8.50;;
15958;SDS011;8078;47.822;9.402;2023-04-26T05:45:14;13.67;;;8.20;;
15958;SDS011;8078;47.822;9.402;2023-04-26T05:47:40;12.50;;;8.17;;
15958;SDS011;8078;47.822;9.402;2023-04-26T05:50:06;17.37;;;9.73;;
15958;SDS011;8078;47.822;9.402;2023-04-26T05:52:32;17.53;;;9.10;;
15958;SDS011;8078;47.822;9.402;2023-04-26T05:54:58;11.57;;;8.00;;
15958;SDS011;8078;47.822;9.402;2023-04-26T05:57:23;14.13;;;8.57;;
15958;SDS011;8078;47.822;9.402;2023-04-26T05:59:49;10.50;;;7.60;;
15958;SDS011;8078;47.822;9.402;2023-04-26T06:02:15;13.10;;;8.13;;
15958;SDS011;8078;47.822;9.402;2023-04-26T06:04:40;9.83;;;6.90;;
15958;SDS011;8078;47.822;9.402;2023-04-26T06:07:06;12.97;;;8.53;;
15958;SDS011;8078;47.822;9.402;2023-04-26T06:09:32;12.47;;;7.93;;
15958;SDS011;8078;47.822;9.402;2023-04-26T06:11:58;14.43;;;8.07;;
15958;SDS011;8078;47.822;9.402;2023-04-26T06:14:23;12.97;;;7.83;;
15958;SDS011;8078;47.822;9.402;2023-04-26T06:16:49;11.30;;;7.27;;
15958;SDS011;8078;47.822;9.402;2023-04-26T06:19:15;13.80;;;7.73;;
15958;SDS011;8078;47.822;9.402;2023-04-26T06:21:40;11.67;;;7.57;;
15958;SDS011;8078;47.822;9.402;2023-04-26T06:24:06;10.63;;;7.37;;
15958;SDS011;8078;47.822;9.402;2023-04-26T06:26:32;11.37;;;8.33;;
15958;SDS011;8078;47.822;9.402;2023-04-26T06:28:57;10.83;;;7.83;;
15958;SDS011;8078;47.822;9.402;2023-04-26T06:31:23;10.57;;;7.10;;
15958;SDS011;8078;47.822;9.402;2023-04-26T06:33:48;9.07;;;6.30;;
15958;SDS011;8078;47.822;9.402;2023-04-26T06:36:14;10.63;;;7.03;;
15958;SDS011;8078;47.822;9.402;2023-04-26T06:38:40;10.90;;;7.00;;
15958;SDS011;8078;47.822;9.402;2023-04-26T06:41:05;11.73;;;8.60;;
15958;SDS011;8078;47.822;9.402;2023-04-26T06:43:32;9.13;;;7.03;;
15958;SDS011;8078;47.822;9.402;2023-04-26T06:45:57;10.33;;;7.43;;
15958;SDS011;8078;47.822;9.402;2023-04-26T06:48:23;10.60;;;6.83;;
15958;SDS011;8078;47.822;9.402;2023-04-26T06:50:48;8.57;;;6.33;;
15958;SDS011;8078;47.822;9.402;2023-04-26T06:53:14;9.17;;;6.90;;
15958;SDS011;8078;47.822;9.402;2023-04-26T06:55:40;8.37;;;6.50;;
15958;SDS011;8078;47.822;9.402;2023-04-26T06:58:05;7.67;;;5.00;;
15958;SDS011;8078;47.822;9.402;2023-04-26T07:00:31;8.60;;;5.70;;
15958;SDS011;8078;47.822;9.402;2023-04-26T07:02:56;8.60;;;6.32;;
15958;SDS011;8078;47.822;9.402;2023-04-26T07:05:22;8.13;;;6.20;;
15958;SDS011;8078;47.822;9.402;2023-04-26T07:07:47;7.78;;;5.82;;
15958;SDS011;8078;47.822;9.402;2023-04-26T07:10:14;7.15;;;5.80;;
15958;SDS011;8078;47.822;9.402;2023-04-26T07:12:39;6.27;;;4.70;;
15958;SDS011;8078;47.822;9.402;2023-04-26T07:15:05;6.33;;;5.00;;
15958;SDS011;8078;47.822;9.402;2023-04-26T07:17:31;6.20;;;5.10;;
15958;SDS011;8078;47.822;9.402;2023-04-26T07:19:57;7.07;;;5.30;;
15958;SDS011;8078;47.822;9.402;2023-04-26T07:22:23;6.50;;;4.53;;
15958;SDS011;8078;47.822;9.402;2023-04-26T07:24:48;7.07;;;5.50;;
15958;SDS011;8078;47.822;9.402;2023-04-26T07:27:14;6.00;;;5.23;;
15958;SDS011;8078;47.822;9.402;2023-04-26T07:29:39;6.70;;;4.87;;
15958;SDS011;8078;47.822;9.402;2023-04-26T07:32:05;6.57;;;4.93;;
15958;SDS011;8078;47.822;9.402;2023-04-26T07:34:31;6.80;;;5.33;;
15958;SDS011;8078;47.822;9.402;2023-04-26T07:36:56;12.07;;;7.07;;
15958;SDS011;8078;47.822;9.402;2023-04-26T07:39:22;8.20;;;5.90;;
15958;SDS011;8078;47.822;9.402;2023-04-26T07:41:48;10.07;;;6.27;;
15958;SDS011;8078;47.822;9.402;2023-04-26T07:44:13;10.23;;;7.20;;
15958;SDS011;8078;47.822;9.402;2023-04-26T07:46:39;11.00;;;7.70;;
15958;SDS011;8078;47.822;9.402;2023-04-26T07:49:05;9.70;;;7.33;;
15958;SDS011;8078;47.822;9.402;2023-04-26T07:51:31;13.43;;;7.57;;
15958;SDS011;8078;47.822;9.402;2023-04-26T07:53:56;12.83;;;8.47;;
15958;SDS011;8078;47.822;9.402;2023-04-26T07:56:22;11.07;;;7.10;;
15958;SDS011;8078;47.822;9.402;2023-04-26T07:58:48;11.03;;;6.83;;
15958;SDS011;8078;47.822;9.402;2023-04-26T08:01:13;10.67;;;7.23;;
15958;SDS011;8078;47.822;9.402;2023-04-26T08:03:40;10.50;;;6.70;;
15958;SDS011;8078;47.822;9.402;2023-04-26T08:06:06;11.33;;;6.60;;
15958;SDS011;8078;47.822;9.402;2023-04-26T08:08:32;11.10;;;7.30;;
15958;SDS011;8078;47.822;9.402;2023-04-26T08:10:59;8.60;;;6.50;;
15958;SDS011;8078;47.822;9.402;2023-04-26T08:13:25;8.70;;;6.10;;
15958;SDS011;8078;47.822;9.402;2023-04-26T08:15:51;10.95;;;6.97;;
15958;SDS011;8078;47.822;9.402;2023-04-26T08:18:16;8.88;;;5.97;;
15958;SDS011;8078;47.822;9.402;2023-04-26T08:20:42;9.27;;;6.15;;
15958;SDS011;8078;47.822;9.402;2023-04-26T08:23:07;7.75;;;6.32;;
15958;SDS011;8078;47.822;9.402;2023-04-26T08:25:33;11.82;;;5.95;;
15958;SDS011;8078;47.822;9.402;2023-04-26T08:27:59;8.38;;;5.88;;
15958;SDS011;8078;47.822;9.402;2023-04-26T08:30:24;8.15;;;6.18;;
15958;SDS011;8078;47.822;9.402;2023-04-26T08:32:50;8.48;;;5.85;;
15958;SDS011;8078;47.822;9.402;2023-04-26T08:35:16;9.30;;;5.38;;
15958;SDS011;8078;47.822;9.402;2023-04-26T08:37:41;6.65;;;5.07;;
15958;SDS011;8078;47.822;9.402;2023-04-26T08:40:07;7.80;;;5.28;;
15958;SDS011;8078;47.822;9.402;2023-04-26T08:42:34;7.40;;;4.80;;
15958;SDS011;8078;47.822;9.402;2023-04-26T08:45:05;6.35;;;4.40;;
15958;SDS011;8078;47.822;9.402;2023-04-26T08:49:58;4.97;;;3.85;;
15958;SDS011;8078;47.822;9.402;2023-04-26T08:52:28;5.30;;;4.15;;
15958;SDS011;8078;47.822;9.402;2023-04-26T08:54:55;3.95;;;3.55;;
15958;SDS011;8078;47.822;9.402;2023-04-26T08:57:23;4.00;;;3.17;;
15958;SDS011;8078;47.822;9.402;2023-04-26T08:59:48;5.85;;;3.80;;
15958;SDS011;8078;47.822;9.402;2023-04-26T09:02:17;5.63;;;4.15;;
15958;SDS011;8078;47.822;9.402;2023-04-26T09:04:46;7.47;;;3.90;;
15958;SDS011;8078;47.822;9.402;2023-04-26T09:07:19;5.33;;;3.90;;
15958;SDS011;8078;47.822;9.402;2023-04-26T09:09:48;4.47;;;3.33;;
15958;SDS011;8078;47.822;9.402;2023-04-26T09:12:17;3.93;;;3.40;;
15958;SDS011;8078;47.822;9.402;2023-04-26T09:14:46;3.60;;;3.30;;
15958;SDS011;8078;47.822;9.402;2023-04-26T09:17:25;5.17;;;3.60;;
15958;SDS011;8078;47.822;9.402;2023-04-26T09:19:55;5.10;;;3.50;;
15958;SDS011;8078;47.822;9.402;2023-04-26T09:22:31;3.67;;;3.20;;
15958;SDS011;8078;47.822;9.402;2023-04-26T09:25:04;3.60;;;3.23;;
15958;SDS011;8078;47.822;9.402;2023-04-26T09:27:37;4.70;;;3.47;;
15958;SDS011;8078;47.822;9.402;2023-04-26T09:35:35;3.70;;;3.40;;
15958;SDS011;8078;47.822;9.402;2023-04-26T09:38:03;4.80;;;2.80;;
15958;SDS011;8078;47.822;9.402;2023-04-26T09:40:30;3.60;;;2.90;;
15958;SDS011;8078;47.822;9.402;2023-04-26T09:42:58;3.13;;;2.83;;
15958;SDS011;8078;47.822;9.402;2023-04-26T09:45:29;3.30;;;3.00;;
15958;SDS011;8078;47.822;9.402;2023-04-26T09:50:42;3.50;;;2.50;;
15958;SDS011;8078;47.822;9.402;2023-04-26T09:53:23;4.37;;;2.60;;
15958;SDS011;8078;47.822;9.402;2023-04-26T09:55:55;3.30;;;3.00;;
15958;SDS011;8078;47.822;9.402;2023-04-26T09:58:22;3.40;;;2.80;;
15958;SDS011;8078;47.822;9.402;2023-04-26T10:00:51;3.67;;;3.00;;
15958;SDS011;8078;47.822;9.402;2023-04-26T10:03:18;4.23;;;2.80;;
15958;SDS011;8078;47.822;9.402;2023-04-26T10:05:45;6.83;;;2.93;;
15958;SDS011;8078;47.822;9.402;2023-04-26T10:08:11;5.43;;;2.70;;
15958;SDS011;8078;47.822;9.402;2023-04-26T10:10:38;3.20;;;2.47;;
15958;SDS011;8078;47.822;9.402;2023-04-26T10:13:05;6.83;;;4.57;;
15958;SDS011;8078;47.822;9.402;2023-04-26T10:15:31;6.87;;;4.63;;
15958;SDS011;8078;47.822;9.402;2023-04-26T10:17:56;6.80;;;4.90;;
15958;SDS011;8078;47.822;9.402;2023-04-26T10:20:22;6.40;;;4.73;;
15958;SDS011;8078;47.822;9.402;2023-04-26T10:22:52;6.10;;;4.23;;
15958;SDS011;8078;47.822;9.402;2023-04-26T10:25:34;5.60;;;4.50;;
15958;SDS011;8078;47.822;9.402;2023-04-26T10:28:01;5.40;;;4.37;;
15958;SDS011;8078;47.822;9.402;2023-04-26T10:30:27;5.23;;;3.70;;
15958;SDS011;8078;47.822;9.402;2023-04-26T10:35:28;5.23;;;3.13;;
15958;SDS011;8078;47.822;9.402;2023-04-26T10:40:26;5.00;;;3.80;;
15958;SDS011;8078;47.822;9.402;2023-04-26T10:43:27;6.27;;;3.40;;
15958;SDS011;8078;47.822;9.402;2023-04-26T10:45:51;3.65;;;3.30;;
15958;SDS011;8078;47.822;9.402;2023-04-26T10:48:22;4.57;;;3.50;;
15958;SDS011;8078;47.822;9.402;2023-04-26T10:53:24;3.50;;;2.80;;
15958;SDS011;8078;47.822;9.402;2023-04-26T10:55:49;3.20;;;2.60;;
15958;SDS011;8078;47.822;9.402;2023-04-26T10:58:25;4.03;;;3.08;;
15958;SDS011;8078;47.822;9.402;2023-04-26T11:01:04;5.23;;;2.90;;
15958;SDS011;8078;47.822;9.402;2023-04-26T11:03:37;2.80;;;2.37;;
15958;SDS011;8078;47.822;9.402;2023-04-26T11:06:05;6.37;;;2.50;;
15958;SDS011;8078;47.822;9.402;2023-04-26T11:08:31;4.30;;;2.67;;
15958;SDS011;8078;47.822;9.402;2023-04-26T11:13:42;5.97;;;3.00;;
15958;SDS011;8078;47.822;9.402;2023-04-26T11:16:09;4.03;;;3.10;;
15958;SDS011;8078;47.822;9.402;2023-04-26T11:18:37;3.67;;;2.77;;
15958;SDS011;8078;47.822;9.402;2023-04-26T11:21:05;3.30;;;2.70;;
15958;SDS011;8078;47.822;9.402;2023-04-26T11:23:31;3.10;;;2.80;;
15958;SDS011;8078;47.822;9.402;2023-04-26T11:25:57;4.10;;;2.70;;
15958;SDS011;8078;47.822;9.402;2023-04-26T11:28:24;6.43;;;2.50;;
15958;SDS011;8078;47.822;9.402;2023-04-26T11:30:50;2.90;;;2.10;;
15958;SDS011;8078;47.822;9.402;2023-04-26T11:33:16;4.82;;;2.17;;
15958;SDS011;8078;47.822;9.402;2023-04-26T11:35:44;3.75;;;2.20;;
15958;SDS011;8078;47.822;9.402;2023-04-26T11:38:11;5.75;;;2.40;;
15958;SDS011;8078;47.822;9.402;2023-04-26T11:40:37;2.97;;;2.13;;
15958;SDS011;8078;47.822;9.402;2023-04-26T11:43:03;3.57;;;2.20;;
15958;SDS011;8078;47.822;9.402;2023-04-26T11:45:33;4.47;;;2.40;;
15958;SDS011;8078;47.822;9.402;2023-04-26T11:48:04;4.43;;;2.53;;
15958;SDS011;8078;47.822;9.402;2023-04-26T11:50:32;3.40;;;2.50;;
15958;SDS011;8078;47.822;9.402;2023-04-26T11:53:02;3.17;;;2.37;;
15958;SDS011;8078;47.822;9.402;2023-04-26T11:55:29;3.47;;;2.93;;
15958;SDS011;8078;47.822;9.402;2023-04-26T11:57:57;3.43;;;2.20;;
15958;SDS011;8078;47.822;9.402;2023-04-26T12:00:32;3.10;;;2.72;;
15958;SDS011;8078;47.822;9.402;2023-04-26T12:03:03;2.60;;;2.00;;
15958;SDS011;8078;47.822;9.402;2023-04-26T12:05:29;4.32;;;2.30;;
15958;SDS011;8078;47.822;9.402;2023-04-26T12:07:56;3.50;;;2.03;;
15958;SDS011;8078;47.822;9.402;2023-04-26T12:10:24;2.63;;;2.42;;
15958;SDS011;8078;47.822;9.402;2023-04-26T12:12:51;1.93;;;1.73;;
15958;SDS011;8078;47.822;9.402;2023-04-26T12:15:22;5.60;;;2.33;;
15958;SDS011;8078;47.822;9.402;2023-04-26T12:18:05;2.43;;;2.20;;
15958;SDS011;8078;47.822;9.402;2023-04-26T12:20:37;4.72;;;2.47;;
15958;SDS011;8078;47.822;9.402;2023-04-26T12:23:05;2.10;;;1.90;;
15958;SDS011;8078;47.822;9.402;2023-04-26T12:25:33;2.78;;;2.13;;
15958;SDS011;8078;47.822;9.402;2023-04-26T12:27:59;3.97;;;2.05;;
15958;SDS011;8078;47.822;9.402;2023-04-26T12:30:27;2.78;;;1.90;;
15958;SDS011;8078;47.822;9.402;2023-04-26T12:32:53;3.50;;;2.00;;
15958;SDS011;8078;47.822;9.402;2023-04-26T12:35:19;2.97;;;2.10;;
15958;SDS011;8078;47.822;9.402;2023-04-26T12:37:46;4.40;;;2.42;;
15958;SDS011;8078;47.822;9.402;2023-04-26T12:40:12;5.15;;;2.13;;
15958;SDS011;8078;47.822;9.402;2023-04-26T12:42:38;3.33;;;2.15;;
15958;SDS011;8078;47.822;9.402;2023-04-26T12:45:03;4.57;;;1.90;;
15958;SDS011;8078;47.822;9.402;2023-04-26T12:47:30;5.50;;;2.30;;
15958;SDS011;8078;47.822;9.402;2023-04-26T12:51:22;4.18;;;2.13;;
15958;SDS011;8078;47.822;9.402;2023-04-26T12:53:48;4.13;;;2.17;;
15958;SDS011;8078;47.822;9.402;2023-04-26T12:56:14;3.58;;;1.88;;
15958;SDS011;8078;47.822;9.402;2023-04-26T12:58:40;3.88;;;2.30;;
15958;SDS011;8078;47.822;9.402;2023-04-26T13:01:06;3.60;;;1.80;;
15958;SDS011;8078;47.822;9.402;2023-04-26T13:03:32;2.90;;;2.03;;
15958;SDS011;8078;47.822;9.402;2023-04-26T13:05:57;2.42;;;2.22;;
15958;SDS011;8078;47.822;9.402;2023-04-26T13:08:23;2.83;;;2.03;;
15958;SDS011;8078;47.822;9.402;2023-04-26T13:10:48;4.15;;;2.00;;
15958;SDS011;8078;47.822;9.402;2023-04-26T13:13:15;4.30;;;2.03;;
15958;SDS011;8078;47.822;9.402;2023-04-26T13:15:40;3.47;;;2.20;;
15958;SDS011;8078;47.822;9.402;2023-04-26T13:18:06;2.72;;;2.00;;
15958;SDS011;8078;47.822;9.402;2023-04-26T13:20:32;3.92;;;2.22;;
15958;SDS011;8078;47.822;9.402;2023-04-26T13:22:57;2.50;;;2.05;;
15958;SDS011;8078;47.822;9.402;2023-04-26T13:25:23;3.08;;;2.00;;
15958;SDS011;8078;47.822;9.402;2023-04-26T13:27:48;4.18;;;2.05;;
15958;SDS011;8078;47.822;9.402;2023-04-26T13:30:17;2.42;;;2.08;;
15958;SDS011;8078;47.822;9.402;2023-04-26T13:32:43;3.05;;;2.25;;
15958;SDS011;8078;47.822;9.402;2023-04-26T13:35:08;3.20;;;2.00;;
15958;SDS011;8078;47.822;9.402;2023-04-26T13:37:35;2.90;;;2.10;;
15958;SDS011;8078;47.822;9.402;2023-04-26T13:40:01;2.70;;;2.00;;
15958;SDS011;8078;47.822;9.402;2023-04-26T13:42:28;4.30;;;2.40;;
15958;SDS011;8078;47.822;9.402;2023-04-26T13:44:53;5.53;;;2.88;;
15958;SDS011;8078;47.822;9.402;2023-04-26T13:47:19;2.33;;;2.13;;
15958;SDS011;8078;47.822;9.402;2023-04-26T13:49:45;4.50;;;2.78;;
15958;SDS011;8078;47.822;9.402;2023-04-26T13:52:10;3.20;;;2.20;;
15958;SDS011;8078;47.822;9.402;2023-04-26T13:54:36;3.00;;;2.27;;
15958;SDS011;8078;47.822;9.402;2023-04-26T13:57:04;5.57;;;2.20;;
15958;SDS011;8078;47.822;9.402;2023-04-26T13:59:29;3.07;;;2.40;;
15958;SDS011;8078;47.822;9.402;2023-04-26T14:01:55;2.80;;;2.20;;
15958;SDS011;8078;47.822;9.402;2023-04-26T14:04:21;4.07;;;2.33;;
15958;SDS011;8078;47.822;9.402;2023-04-26T14:06:47;2.90;;;2.60;;
15958;SDS011;8078;47.822;9.402;2023-04-26T14:09:12;4.07;;;2.37;;
15958;SDS011;8078;47.822;9.402;2023-04-26T14:11:38;3.27;;;2.50;;
15958;SDS011;8078;47.822;9.402;2023-04-26T14:14:03;3.67;;;2.43;;
15958;SDS011;8078;47.822;9.402;2023-04-26T14:16:29;3.90;;;2.63;;
15958;SDS011;8078;47.822;9.402;2023-04-26T14:18:55;3.30;;;2.30;;
15958;SDS011;8078;47.822;9.402;2023-04-26T14:21:20;4.43;;;2.37;;
15958;SDS011;8078;47.822;9.402;2023-04-26T14:23:46;3.63;;;2.20;;
15958;SDS011;8078;47.822;9.402;2023-04-26T14:26:11;3.00;;;2.20;;
15958;SDS011;8078;47.822;9.402;2023-04-26T14:28:37;4.83;;;2.50;;
15958;SDS011;8078;47.822;9.402;2023-04-26T14:31:03;3.03;;;2.20;;
15958;SDS011;8078;47.822;9.402;2023-04-26T14:33:28;4.07;;;2.50;;
15958;SDS011;8078;47.822;9.402;2023-04-26T14:35:54;5.00;;;2.80;;
15958;SDS011;8078;47.822;9.402;2023-04-26T14:38:20;5.23;;;2.30;;
15958;SDS011;8078;47.822;9.402;2023-04-26T14:40:46;2.20;;;2.00;;
15958;SDS011;8078;47.822;9.402;2023-04-26T14:43:11;6.00;;;2.20;;
15958;SDS011;8078;47.822;9.402;2023-04-26T14:45:37;2.63;;;2.08;;
15958;SDS011;8078;47.822;9.402;2023-04-26T14:48:05;4.43;;;2.23;;
15958;SDS011;8078;47.822;9.402;2023-04-26T14:50:31;5.23;;;2.50;;
15958;SDS011;8078;47.822;9.402;2023-04-26T14:52:56;5.03;;;2.40;;
15958;SDS011;8078;47.822;9.402;2023-04-26T14:55:22;3.47;;;2.10;;
15958;SDS011;8078;47.822;9.402;2023-04-26T14:57:48;3.43;;;2.20;;
15958;SDS011;8078;47.822;9.402;2023-04-26T15:00:14;4.75;;;2.10;;
15958;SDS011;8078;47.822;9.402;2023-04-26T15:02:44;3.58;;;2.28;;
15958;SDS011;8078;47.822;9.402;2023-04-26T15:05:10;2.97;;;2.63;;
15958;SDS011;8078;47.822;9.402;2023-04-26T15:07:37;2.73;;;2.10;;
15958;SDS011;8078;47.822;9.402;2023-04-26T15:10:04;2.60;;;2.20;;
15958;SDS011;8078;47.822;9.402;2023-04-26T15:12:30;5.32;;;2.67;;
15958;SDS011;8078;47.822;9.402;2023-04-26T15:14:55;2.43;;;2.20;;
15958;SDS011;8078;47.822;9.402;2023-04-26T15:17:21;3.70;;;2.10;;
15958;SDS011;8078;47.822;9.402;2023-04-26T15:19:47;5.27;;;2.50;;